EW4964 Weather Reports


Display with metric or nautical units.
time (UTC)temp
F
wind
direction
speed
MPH
gust
MPH
rain 1hr
in
rain 24hr
in
rain mn
in
humidity
%
barometer
mb
20191113103005 32 45 8.0 13.0 0.08 0.47 0.08 94 1001.6
20191113101506 32 45 5.0 8.0 0.08 0.47 0.08 94 1001.5
20191113100006 32 45 6.0 9.0 0.08 0.47 0.08 94 1002.0
20191113094506 32 46 5.0 9.0 0.02 0.41 0.02 94 1001.7
20191113093006 32 46 5.0 9.0 0.00 0.40 0.00 94 1001.7
20191113091505 32 45 5.0 8.0 0.00 0.40 0.00 94 1001.6
20191113090005 32 45 5.0 8.0 0.00 0.40 0.00 94 1001.6
20191113084505 32 45 4.0 7.0 0.00 0.40 0.00 94 1001.7
20191113083005 32 45 4.0 7.0 0.00 0.40 0.00 94 1001.4
20191113081505 32 45 4.0 7.0 0.00 0.41 0.00 94 1001.4
20191113080005 33 45 2.0 6.0 0.00 0.43 0.00 94 1001.2
20191113074510 32 45 4.0 6.0 0.00 0.43 0.00 94 1001.3
20191113073005 32 45 4.0 7.0 0.00 0.43 0.00 94 1000.8
20191113071505 32 45 4.0 6.0 0.00 0.43 0.00 94 1001.1
20191113070006 32 45 4.0 6.0 0.00 0.44 0.00 94 1001.2
20191113064505 32 45 4.0 8.0 0.00 0.44 0.00 94 1001.0
20191113063006 32 46 4.0 7.0 0.00 0.44 0.00 94 1001.4
20191113061505 32 45 4.0 6.0 0.00 0.44 0.00 94 1001.3
20191113060006 32 45 4.0 5.0 0.00 0.44 0.00 94 1001.3
20191113054505 31 46 5.0 7.0 0.00 0.44 0.00 94 1001.6
20191113053006 31 45 4.0 8.0 0.00 0.45 0.00 94 1001.5
20191113051505 31 46 5.0 8.0 0.00 0.45 0.00 94 1001.3
20191113050005 31 45 5.0 8.0 0.00 0.46 0.00 94 1001.3
20191113044505 31 46 5.0 8.0 0.00 0.46 0.00 94 1001.5
20191113043005 31 41 6.0 11.0 0.00 0.46 0.00 94 1001.6
20191113041505 31 48 6.0 10.0 0.00 0.46 0.00 94 1002.2
20191113040005 31 47 6.0 9.0 0.00 0.46 0.00 94 1001.7
20191113034505 31 29 6.0 10.0 0.00 0.46 0.00 94 1001.9
20191113033005 31 44 6.0 11.0 0.00 0.46 0.00 94 1002.2
20191113031505 32 26 6.0 10.0 0.00 0.46 0.00 94 1002.0
20191113030005 32 34 5.0 8.0 0.00 0.46 0.00 94 1002.0
20191113024504 32 8 6.0 10.0 0.00 0.46 0.00 94 1002.5
20191113023005 32 14 5.0 8.0 0.00 0.46 0.00 94 1002.8
20191113021504 32 12 4.0 8.0 0.00 0.46 0.00 94 1002.7
20191113020006 32 19 4.0 7.0 0.00 0.46 0.00 94 1002.5
20191113014505 32 29 5.0 9.0 0.00 0.46 0.00 94 1002.8
20191113013005 32 29 4.0 7.0 0.00 0.46 0.00 94 1003.1
20191113011505 32 46 4.0 7.0 0.00 0.47 0.00 94 1003.1
20191113010005 32 37 4.0 7.0 0.00 0.47 0.00 94 1003.3
20191113004505 32 47 5.0 8.0 0.00 0.47 0.00 94 1003.1
20191113003005 32 45 4.0 7.0 0.00 0.47 0.00 94 1003.6
20191113001505 32 38 2.0 8.0 0.00 0.47 0.00 94 1003.7
20191113000004 32 38 5.0 9.0 0.00 0.47 0.00 94 1003.8
20191112234505 32 53 5.0 8.0 0.00 0.47 0.00 94 1003.5
20191112233005 32 53 6.0 10.0 0.01 0.47 0.00 94 1003.7
20191112231504 32 45 5.0 11.0 0.01 0.47 0.00 94 1004.0
20191112230006 32 20 6.0 9.0 0.01 0.47 0.00 94 1004.3
20191112224505 32 16 5.0 11.0 0.01 0.47 0.47 94 1003.8
20191112223005 32 31 5.0 11.0 0.00 0.46 0.46 94 1004.4
20191112221504 32 12 5.0 9.0 0.01 0.46 0.46 95 1004.3
20191112220005 32 28 5.0 10.0 0.02 0.46 0.46 95 1004.0
20191112214505 32 34 5.0 8.0 0.02 0.46 0.46 95 1004.2
20191112213007 33 11 4.0 8.0 0.04 0.46 0.46 95 1004.6
20191112211507 32 40 4.0 8.0 0.04 0.45 0.45 95 1004.9
20191112210007 32 38 4.0 7.0 0.02 0.44 0.44 95 1004.6
20191112204507 32 32 5.0 8.0 0.04 0.44 0.44 95 1004.7
20191112203007 32 44 5.0 8.0 0.04 0.43 0.43 95 1004.7
20191112201508 32 44 4.0 7.0 0.04 0.41 0.41 95 1004.4
20191112200007 32 47 5.0 8.0 0.06 0.41 0.41 95 1004.2
20191112194508 32 45 5.0 8.0 0.05 0.40 0.40 95 1004.5
20191112193008 32 48 4.0 10.0 0.05 0.39 0.39 95 1004.8
20191112191507 32 61 4.0 7.0 0.05 0.38 0.38 95 1005.0
20191112190007 33 55 4.0 7.0 0.02 0.35 0.35 95 1004.9
20191112184507 33 41 4.0 7.0 0.04 0.35 0.35 95 1005.1
20191112183007 33 52 5.0 8.0 0.04 0.34 0.34 95 1005.0
20191112181507 33 39 5.0 8.0 0.04 0.33 0.33 95 1005.0
20191112180007 33 37 5.0 8.0 0.07 0.33 0.33 95 1005.4
20191112174507 33 57 5.0 8.0 0.07 0.32 0.32 95 1005.8
20191112173007 33 46 6.0 8.0 0.07 0.31 0.31 95 1005.9
20191112171507 33 54 4.0 8.0 0.07 0.30 0.30 95 1006.5
20191112170006 33 63 4.0 7.0 0.05 0.26 0.26 95 1006.3
20191112164507 33 55 6.0 10.0 0.05 0.25 0.25 95 1006.3
20191112163008 34 64 4.0 8.0 0.05 0.24 0.24 95 1006.1
20191112161506 34 51 4.0 8.0 0.04 0.22 0.22 95 1006.1
20191112160008 34 53 4.0 9.0 0.04 0.21 0.21 95 1006.1
20191112154507 35 47 4.0 8.0 0.04 0.20 0.20 95 1006.5
20191112153007 35 71 3.0 6.0 0.04 0.19 0.19 95 1006.5
20191112151507 35 63 3.0 4.0 0.05 0.19 0.19 95 1006.5
20191112150007 35 67 3.0 5.0 0.05 0.18 0.18 95 1006.2
20191112144507 35 64 4.0 8.0 0.05 0.17 0.17 95 1006.1
20191112143006 35 69 3.0 5.0 0.05 0.15 0.15 96 1006.5
20191112141507 35 44 3.0 5.0 0.04 0.14 0.14 96 1006.6
20191112140006 36 89 2.0 5.0 0.02 0.13 0.13 96 1007.1
20191112134507 36 91 2.0 4.0 0.02 0.12 0.12 96 1007.1
20191112133006 36 61 3.0 6.0 0.01 0.11 0.11 96 1007.4
20191112131507 37 46 3.0 4.0 0.01 0.11 0.11 96 1007.5
20191112130006 38 139 2.0 4.0 0.01 0.11 0.11 96 1007.6
20191112124506 38 127 2.0 4.0 0.00 0.09 0.09 96 1007.9
20191112123007 38 160 2.0 4.0 0.00 0.09 0.09 96 1008.1
20191112121506 38 163 1.0 4.0 0.01 0.09 0.09 96 1008.2
20191112120007 38 133 0.0 3.0 0.01 0.09 0.09 96 1007.9
20191112114506 38 134 2.0 4.0 0.01 0.09 0.09 96 1007.8
20191112113007 38 150 1.0 4.0 0.01 0.09 0.09 96 1007.4
20191112111506 38 135 0.0 2.0 0.00 0.08 0.08 96 1007.9
20191112110006 38 163 1.0 3.0 0.00 0.08 0.08 96 1008.1
20191112104506 38 252 0.0 2.0 0.01 0.08 0.08 96 1008.3